63TX weather

CLOSED Grosser Airport
Bergheim, Texas, United States

Public forecast

Using degrees Fahrenheit for public forecast. Weather courtesy of forecast.io.

METAR (pilot weather report)

Closest report is Boerne Stage Field, 6.8 nm (12.6 km) WSW. Retrieved 2019/09/16 03:35 UTC (0 seconds ago):

K5C1 160335Z AUTO 14004KT 10SM CLR 26/16 A3006 RMK AO1

TAF (pilot weather forecast)

Forecast is more than 12 hours old.

Closest forecast is San Antonio International Airport, 15.6 nm (28.8 km) SSE. Retrieved 2019/09/15 00:33 UTC (1 day ago):

TAF KSAT 152330Z 1600/1706 12010KT P6SM SCT080 SCT250 FM160500 VRB04KT P6SM FEW060 SCT250 FM161700 08009KT P6SM SCT070 SCT250 FM170200 12007KT P6SM SCT070 SCT250